Time;durP1;ratioP1;P1;durP2;ratioP2;P2;SDS_P1;SDS_P2;PMS_P1;PMS_P2;Temp;Humidity;BMP_temperature;BMP_pressure;BME280_temperature;BME280_humidity;BME280_pressure;Samples;Min_cycle;Max_cycle;Signal;HPM_P1;HPM_P2
2020/12/01 00:02:08;;;;;;;33.20;17.63;;;;;;;-3.40;84.83;99188.63;5050151;28;20330;-60
2020/12/01 00:04:33;;;;;;;31.63;17.60;;;;;;;-3.44;84.56;99181.75;5036237;28;20078;-61
2020/12/01 00:06:59;;;;;;;33.60;18.30;;;;;;;-3.44;84.26;99182.63;5034817;28;20025;-61
2020/12/01 00:09:24;;;;;;;28.73;16.40;;;;;;;-3.46;84.39;99179.16;5034811;28;20211;-60
2020/12/01 00:11:49;;;;;;;26.10;15.60;;;;;;;-3.47;84.70;99176.59;5034641;28;20021;-60
2020/12/01 00:14:15;;;;;;;33.73;16.63;;;;;;;-3.50;84.71;99178.97;5043139;28;20044;-61
2020/12/01 00:16:40;;;;;;;32.40;17.03;;;;;;;-3.49;84.98;99173.16;5055196;28;20304;-60
2020/12/01 00:19:06;;;;;;;37.33;16.50;;;;;;;-3.50;84.59;99172.31;5055299;28;20152;-61
2020/12/01 00:21:31;;;;;;;29.87;16.40;;;;;;;-3.53;84.50;99179.69;5055338;28;20028;-61
2020/12/01 00:23:57;;;;;;;34.73;16.73;;;;;;;-3.60;84.72;99174.31;5054283;28;20094;-60
2020/12/01 00:26:22;;;;;;;30.53;16.60;;;;;;;-3.58;84.32;99176.13;5055640;28;20025;-61
2020/12/01 00:28:49;;;;;;;28.83;17.03;;;;;;;-3.58;84.48;99173.63;5046197;28;20503;-60
2020/12/01 00:31:16;;;;;;;34.17;17.90;;;;;;;-3.53;84.17;99171.31;5034339;28;20033;-60
2020/12/01 00:33:41;;;;;;;29.03;15.43;;;;;;;-3.60;84.60;99174.31;5033680;28;20049;-61
2020/12/01 00:36:08;;;;;;;31.33;15.83;;;;;;;-3.55;84.03;99170.38;5047043;28;20437;-60
2020/12/01 00:38:34;;;;;;;30.47;15.50;;;;;;;-3.62;83.96;99170.91;5054186;28;20039;-60
2020/12/01 00:40:59;;;;;;;29.60;16.70;;;;;;;-3.64;84.59;99168.31;5034400;28;20057;-60
2020/12/01 00:43:25;;;;;;;30.07;16.90;;;;;;;-3.63;84.79;99159.16;5033713;28;20171;-60
2020/12/01 00:45:50;;;;;;;28.47;15.47;;;;;;;-3.63;84.26;99165.03;5055061;28;20032;-61
2020/12/01 00:48:16;;;;;;;27.83;15.50;;;;;;;-3.66;84.39;99169.91;5050011;28;20037;-61
2020/12/01 00:50:42;;;;;;;34.90;15.73;;;;;;;-3.71;84.03;99166.31;5035709;28;20139;-61
2020/12/01 00:53:08;;;;;;;29.37;15.37;;;;;;;-3.75;83.87;99164.47;5033901;28;20029;-60
2020/12/01 00:55:33;;;;;;;31.43;17.20;;;;;;;-3.78;84.13;99165.19;5035420;28;20029;-60
2020/12/01 00:57:59;;;;;;;28.90;15.20;;;;;;;-3.81;83.83;99170.06;5034276;28;20457;-60
2020/12/01 01:00:28;;;;;;;30.40;17.13;;;;;;;-3.77;84.10;99161.88;5035562;28;20092;-60
2020/12/01 01:02:53;;;;;;;27.87;15.10;;;;;;;-3.79;83.84;99165.13;5034212;28;20033;-60
2020/12/01 01:05:20;;;;;;;30.00;15.83;;;;;;;-3.77;84.08;99166.91;5052533;28;20102;-60
2020/12/01 01:07:45;;;;;;;30.33;17.17;;;;;;;-3.79;83.49;99158.47;5053947;28;20037;-59
2020/12/01 01:10:18;;;;;;;30.73;16.90;;;;;;;-3.78;83.01;99164.34;5038139;28;20033;-60
2020/12/01 01:12:43;;;;;;;30.67;17.17;;;;;;;-3.85;83.58;99157.31;5033986;28;20033;-60
2020/12/01 01:15:09;;;;;;;32.90;16.33;;;;;;;-3.88;83.80;99155.53;5048167;28;20040;-60
2020/12/01 01:17:34;;;;;;;27.60;14.97;;;;;;;-3.89;84.06;99148.81;5054205;28;20047;-61
2020/12/01 01:20:00;;;;;;;30.30;14.63;;;;;;;-3.86;83.95;99141.44;5054081;28;20444;-60
2020/12/01 01:22:25;;;;;;;28.37;15.53;;;;;;;-3.95;83.74;99143.53;5053935;28;20102;-60
2020/12/01 01:24:50;;;;;;;28.30;16.63;;;;;;;-3.98;83.35;99143.38;5038693;28;20132;-60
2020/12/01 01:27:16;;;;;;;27.40;14.90;;;;;;;-3.98;84.57;99135.88;5034150;28;20037;-60
2020/12/01 01:29:41;;;;;;;33.23;15.43;;;;;;;-4.02;84.04;99134.00;5046397;28;20029;-60
2020/12/01 01:32:07;;;;;;;38.13;15.47;;;;;;;-4.00;84.22;99129.94;5054517;28;20124;-60
2020/12/01 01:34:32;;;;;;;34.20;17.33;;;;;;;-4.00;83.94;99121.56;5041548;28;20438;-60
2020/12/01 01:36:57;;;;;;;27.73;14.20;;;;;;;-4.02;84.30;99121.50;5033397;28;20033;-60
2020/12/01 01:39:23;;;;;;;28.60;15.70;;;;;;;-4.01;83.95;99115.72;5032510;28;20465;-60
2020/12/01 01:41:48;;;;;;;25.17;13.73;;;;;;;-4.04;84.04;99113.06;5032783;28;20037;-60
2020/12/01 01:44:28;;;;;;;28.43;14.80;;;;;;;-3.99;83.82;99114.16;5033135;28;20025;-60
2020/12/01 01:47:01;;;;;;;31.20;15.27;;;;;;;-3.99;84.27;99110.78;5034183;28;20469;-60
2020/12/01 01:49:37;;;;;;;30.33;15.80;;;;;;;-3.98;83.82;99110.84;5033662;28;20068;-60
2020/12/01 01:52:11;;;;;;;25.10;14.33;;;;;;;-3.99;84.05;99108.28;5033725;28;20021;-60
2020/12/01 01:54:37;;;;;;;37.83;16.03;;;;;;;-3.98;84.13;99105.81;5033180;28;20111;-60
2020/12/01 01:57:04;;;;;;;28.33;15.77;;;;;;;-4.01;83.50;99114.84;5033900;28;20442;-60
2020/12/01 01:59:31;;;;;;;23.70;13.63;;;;;;;-4.04;84.51;99110.56;5033107;28;20037;-60
2020/12/01 02:01:58;;;;;;;23.60;15.47;;;;;;;-4.08;84.32;99107.84;5047528;28;20051;-60
2020/12/01 02:04:24;;;;;;;32.40;14.90;;;;;;;-4.09;84.13;99102.00;5052559;28;20025;-60
2020/12/01 02:06:54;;;;;;;25.87;14.23;;;;;;;-4.02;84.51;99098.97;5039880;28;20040;-60
2020/12/01 02:09:42;;;;;;;25.37;13.73;;;;;;;-4.00;84.33;99089.91;5033115;28;20037;-60
2020/12/01 02:12:11;;;;;;;22.50;13.03;;;;;;;-3.99;84.24;99091.63;5046746;28;20418;-60
2020/12/01 02:14:40;;;;;;;24.07;13.70;;;;;;;-3.94;83.91;99090.16;5053711;28;20041;-61
2020/12/01 02:17:22;;;;;;;22.03;12.40;;;;;;;-3.95;84.28;99085.09;5040055;28;20025;-60
2020/12/01 02:19:50;;;;;;;26.10;12.63;;;;;;;-3.97;83.67;99086.66;5033119;28;20434;-59
2020/12/01 02:22:20;;;;;;;28.93;13.57;;;;;;;-4.01;84.20;99080.66;5045563;28;20040;-60
2020/12/01 02:24:46;;;;;;;24.50;13.03;;;;;;;-4.05;84.19;99083.81;5053645;28;20222;-60
2020/12/01 02:27:15;;;;;;;24.23;13.00;;;;;;;-4.00;84.12;99084.03;5040819;28;20399;-60
2020/12/01 02:29:45;;;;;;;25.77;12.73;;;;;;;-4.06;83.27;99083.72;5043506;28;20095;-60
2020/12/01 02:32:11;;;;;;;22.67;11.87;;;;;;;-4.11;83.53;99082.66;5032107;28;20057;-60
2020/12/01 02:34:41;;;;;;;23.73;12.93;;;;;;;-4.12;82.97;99076.81;5042928;28;20094;-60
2020/12/01 02:37:09;;;;;;;24.63;13.57;;;;;;;-4.15;83.53;99074.16;5053280;28;20059;-60
2020/12/01 02:39:35;;;;;;;22.00;12.70;;;;;;;-4.24;83.34;99058.72;5052156;28;20025;-60
2020/12/01 02:42:04;;;;;;;23.33;13.83;;;;;;;-4.23;83.27;99062.94;5053354;28;20044;-60
2020/12/01 02:44:30;;;;;;;20.27;11.73;;;;;;;-4.24;83.29;99066.22;5043948;28;20033;-60
2020/12/01 02:46:59;;;;;;;29.80;13.03;;;;;;;-4.23;83.59;99073.81;5033217;28;20030;-60
2020/12/01 02:49:25;;;;;;;21.83;11.40;;;;;;;-4.28;83.74;99071.88;5032214;28;20036;-60
2020/12/01 02:51:50;;;;;;;20.93;11.67;;;;;;;-4.33;83.77;99065.84;5032145;28;20439;-61
2020/12/01 02:54:16;;;;;;;23.03;11.70;;;;;;;-4.33;83.36;99065.84;5031066;28;20025;-61
2020/12/01 02:56:41;;;;;;;25.40;12.87;;;;;;;-4.37;82.51;99053.97;5049715;28;20151;-61
2020/12/01 02:59:07;;;;;;;25.00;12.33;;;;;;;-4.40;83.28;99057.16;5046528;28;20025;-60
2020/12/01 03:01:32;;;;;;;24.20;11.57;;;;;;;-4.41;82.99;99059.63;5038941;28;20029;-60
2020/12/01 03:03:57;;;;;;;21.43;11.67;;;;;;;-4.43;82.56;99056.19;5036453;28;20422;-60
2020/12/01 03:06:23;;;;;;;22.50;12.63;;;;;;;-4.39;83.39;99058.03;5042550;28;20041;-60
2020/12/01 03:08:49;;;;;;;25.17;12.40;;;;;;;-4.42;82.99;99061.25;5035889;28;20033;-61
2020/12/01 03:11:15;;;;;;;25.00;13.07;;;;;;;-4.42;83.54;99050.38;5040832;28;20029;-60
2020/12/01 03:13:41;;;;;;;24.73;13.83;;;;;;;-4.45;83.56;99045.22;5043481;28;20120;-61
2020/12/01 03:16:10;;;;;;;27.00;13.50;;;;;;;-4.40;83.84;99058.81;5052370;28;20102;-61
2020/12/01 03:18:37;;;;;;;28.93;14.27;;;;;;;-4.41;83.23;99057.13;5043755;28;20041;-61
2020/12/01 03:21:04;;;;;;;24.87;12.67;;;;;;;-4.43;82.90;99049.53;5044691;28;20124;-60
2020/12/01 03:23:29;;;;;;;23.00;11.73;;;;;;;-4.45;83.21;99056.09;5052193;28;20024;-60
2020/12/01 03:25:55;;;;;;;30.37;14.30;;;;;;;-4.49;82.88;99056.75;5049149;28;20032;-60
2020/12/01 03:28:20;;;;;;;26.60;14.00;;;;;;;-4.50;82.42;99047.53;5048534;28;20025;-60
2020/12/01 03:30:46;;;;;;;22.80;12.03;;;;;;;-4.50;83.08;99051.69;5053530;28;20032;-60
2020/12/01 03:33:11;;;;;;;22.90;13.07;;;;;;;-4.56;83.35;99052.25;5049798;28;20045;-60
2020/12/01 03:35:37;;;;;;;24.77;13.37;;;;;;;-4.57;83.05;99042.16;5046897;28;20385;-60
2020/12/01 03:38:03;;;;;;;22.67;11.63;;;;;;;-4.60;82.70;99045.38;5036865;28;20456;-61
2020/12/01 03:40:28;;;;;;;20.70;12.17;;;;;;;-4.63;82.35;99046.13;5037749;28;20350;-60
2020/12/01 03:42:53;;;;;;;21.60;13.03;;;;;;;-4.66;82.70;99045.94;5041785;28;20159;-60
2020/12/01 03:45:19;;;;;;;22.83;13.80;;;;;;;-4.67;83.46;99049.22;5049386;28;20078;-61
2020/12/01 03:47:44;;;;;;;19.60;12.83;;;;;;;-4.74;82.87;99044.72;5050141;28;20025;-60
2020/12/01 03:50:12;;;;;;;22.57;12.10;;;;;;;-4.70;83.10;99050.72;5065039;28;20111;-61
2020/12/01 03:52:38;;;;;;;21.50;13.07;;;;;;;-4.74;83.61;99041.38;5051529;28;20186;-61
2020/12/01 03:55:04;;;;;;;27.97;15.80;;;;;;;-4.68;83.75;99039.16;5054198;28;20095;-60
2020/12/01 03:57:40;;;;;;;25.57;15.13;;;;;;;-4.69;84.33;99033.31;5053441;28;20177;-60
2020/12/01 04:00:05;;;;;;;;;;;;;;;-4.57;84.34;99037.16;5050865;28;20025;-61
2020/12/01 04:02:30;;;;;;;26.50;14.00;;;;;;;-4.64;83.92;99038.53;5057073;28;20309;-60
2020/12/01 04:04:56;;;;;;;27.77;14.87;;;;;;;-4.61;84.26;99032.03;5051666;28;20037;-60
2020/12/01 04:07:23;;;;;;;26.87;13.53;;;;;;;-4.49;84.27;99036.72;5049424;28;20022;-60
2020/12/01 04:09:48;;;;;;;24.60;12.97;;;;;;;-4.47;84.11;99035.16;5049844;28;20083;-60
2020/12/01 04:12:14;;;;;;;32.00;15.23;;;;;;;-4.40;85.70;99036.28;5039389;28;20033;-60
2020/12/01 04:14:39;;;;;;;28.53;15.03;;;;;;;-4.32;85.46;99024.97;5038976;28;20358;-60
2020/12/01 04:17:04;;;;;;;74.27;20.30;;;;;;;-4.33;86.02;99029.13;5037467;28;20480;-60
2020/12/01 04:19:30;;;;;;;81.80;20.50;;;;;;;-4.29;87.15;99028.50;5041231;28;20031;-61
2020/12/01 04:21:55;;;;;;;32.77;17.60;;;;;;;-4.23;87.42;99022.91;5043033;28;20025;-61
2020/12/01 04:24:21;;;;;;;90.80;21.33;;;;;;;-4.24;87.74;99026.19;5042053;28;20027;-60
2020/12/01 04:26:46;;;;;;;43.83;19.60;;;;;;;-4.20;88.16;99030.56;5040056;28;20124;-62
2020/12/01 04:29:11;;;;;;;83.53;22.40;;;;;;;-4.13;88.38;99027.53;5041072;28;20346;-62
2020/12/01 04:31:37;;;;;;;89.83;24.27;;;;;;;-4.09;88.42;99026.88;5047680;28;20426;-61
2020/12/01 04:34:02;;;;;;;46.10;20.67;;;;;;;-4.04;88.48;99022.94;5039569;28;20022;-61
2020/12/01 04:36:28;;;;;;;123.97;24.33;;;;;;;-4.02;88.98;99028.88;5041657;28;20083;-61
2020/12/01 04:38:53;;;;;;;105.83;25.63;;;;;;;-4.00;89.43;99011.41;5040418;28;20033;-60
2020/12/01 04:41:18;;;;;;;130.57;27.33;;;;;;;-3.98;89.17;99020.69;5037040;28;20159;-61
2020/12/01 04:43:51;;;;;;;84.03;24.47;;;;;;;-3.90;89.07;99024.38;5042442;28;20012;-61
2020/12/01 04:46:22;;;;;;;62.37;21.20;;;;;;;-3.79;88.81;99023.22;5040427;28;20403;-61
2020/12/01 04:48:55;;;;;;;83.30;22.90;;;;;;;-3.77;88.89;99021.63;5035605;28;20104;-60
2020/12/01 04:51:35;;;;;;;100.17;24.27;;;;;;;-3.77;88.96;99019.13;5042876;28;20354;-60
2020/12/01 04:54:28;;;;;;;93.33;21.30;;;;;;;-3.76;89.14;99018.34;5038500;28;20025;-60
2020/12/01 04:57:27;;;;;;;130.67;26.10;;;;;;;-3.79;88.51;99010.72;5038210;28;20026;-61
2020/12/01 05:00:40;;;;;;;101.43;28.20;;;;;;;-3.74;88.91;99009.25;5043823;28;20096;-61
2020/12/01 05:03:11;;;;;;;102.97;27.57;;;;;;;-3.72;88.40;99007.66;5039482;28;20489;-60
2020/12/01 05:08:31;;;;;;;137.13;26.77;;;;;;;-3.78;88.37;99009.91;5047643;28;20103;-60
2020/12/01 05:11:02;;;;;;;82.00;24.70;;;;;;;-3.78;89.23;99009.91;5042663;28;20106;-60
2020/12/01 05:13:31;;;;;;;106.53;26.10;;;;;;;-3.77;89.38;99008.25;5043690;28;20033;-60
2020/12/01 05:16:13;;;;;;;107.50;28.23;;;;;;;-3.76;89.81;99015.84;5029433;28;20505;-60
2020/12/01 05:18:39;;;;;;;202.40;31.97;;;;;;;-3.71;89.70;99011.03;5047795;28;20025;-60
2020/12/01 05:21:05;;;;;;;83.43;27.33;;;;;;;-3.66;89.41;98998.72;5043885;28;20362;-61
2020/12/01 05:23:41;;;;;;;146.00;35.43;;;;;;;-3.63;89.96;98996.31;5044751;28;20032;-60
2020/12/01 05:26:10;;;;;;;154.37;31.70;;;;;;;-3.56;89.95;98996.63;5045070;28;20033;-60
2020/12/01 05:28:46;;;;;;;106.70;29.60;;;;;;;-3.45;89.84;98994.59;5047576;28;20086;-60
2020/12/01 05:31:12;;;;;;;196.83;34.90;;;;;;;-3.52;89.92;98990.97;5046336;28;20481;-60
2020/12/01 05:33:37;;;;;;;116.63;28.60;;;;;;;-3.43;89.36;98998.00;5045402;28;20559;-60
2020/12/01 05:36:05;;;;;;;153.10;30.03;;;;;;;-3.47;89.13;98992.00;5044707;28;20115;-61
2020/12/01 05:38:32;;;;;;;84.63;27.50;;;;;;;-3.41;89.71;98989.78;5048027;28;20539;-61
2020/12/01 05:41:21;;;;;;;78.70;27.67;;;;;;;-3.39;89.47;98990.69;5046234;28;20025;-60
2020/12/01 05:43:54;;;;;;;116.53;27.03;;;;;;;-3.41;89.37;98987.28;5050200;28;20037;-60
2020/12/01 05:46:28;;;;;;;132.23;28.23;;;;;;;-3.40;88.63;99000.66;5045309;28;20021;-61
2020/12/01 05:48:59;;;;;;;78.75;24.35;;;;;;;-3.45;88.65;98994.59;5049402;28;20025;-61
2020/12/01 05:51:43;;;;;;;69.20;24.27;;;;;;;-3.41;88.64;98992.28;5050055;28;20079;-60
2020/12/01 05:54:32;;;;;;;95.37;27.93;;;;;;;-3.41;89.00;98987.28;5051345;28;20032;-60
2020/12/01 05:56:57;;;;;;;71.60;25.63;;;;;;;-3.36;89.15;98982.44;5055024;28;20103;-60
2020/12/01 05:59:24;;;;;;;119.80;30.90;;;;;;;-3.33;89.44;98985.94;5052349;28;20096;-61
2020/12/01 06:02:08;;;;;;;87.77;29.27;;;;;;;-3.19;89.96;98978.13;5047805;28;20062;-60
2020/12/01 06:04:33;;;;;;;105.80;30.57;;;;;;;-3.22;89.35;98981.34;5060120;28;20024;-61
2020/12/01 06:07:10;;;;;;;94.67;31.57;;;;;;;-3.24;89.30;98986.31;5070903;28;20020;-60
2020/12/01 06:09:53;;;;;;;95.13;26.63;;;;;;;-3.40;88.46;98973.94;5061684;28;20370;-60
2020/12/01 06:12:37;;;;;;;75.70;25.20;;;;;;;-3.40;88.27;98983.13;5051834;28;20029;-61
2020/12/01 06:15:13;;;;;;;99.13;24.90;;;;;;;-3.43;88.36;98977.97;5046906;28;20083;-60
2020/12/01 06:17:45;;;;;;;76.90;25.60;;;;;;;-3.39;88.48;98983.16;5048360;28;20072;-60
2020/12/01 06:20:25;;;;;;;57.60;23.13;;;;;;;-3.26;87.95;98985.38;5050481;28;20094;-60
2020/12/01 06:23:18;;;;;;;115.60;26.37;;;;;;;-3.34;87.71;98985.84;5071778;28;20103;-61
2020/12/01 06:26:02;;;;;;;75.83;23.63;;;;;;;-3.36;87.85;98980.81;5069960;28;20028;-60
2020/12/01 06:28:46;;;;;;;66.63;25.23;;;;;;;-3.31;88.48;98981.00;5071454;28;20112;-61
2020/12/01 06:31:30;;;;;;;79.10;24.23;;;;;;;-3.30;88.27;98982.69;5052586;28;20093;-60
2020/12/01 06:34:02;;;;;;;111.70;26.08;;;;;;;-3.26;87.83;98979.50;5051471;28;20195;-61
2020/12/01 06:36:49;;;;;;;66.07;26.03;;;;;;;-3.26;88.15;98984.50;5050989;28;20101;-60
2020/12/01 06:39:17;;;;;;;97.93;25.20;;;;;;;-3.30;nan;98973.50;5053350;28;20116;-60
2020/12/01 06:42:05;;;;;;;102.73;26.73;;;;;;;-3.25;88.48;98968.69;5052941;28;20401;-60
2020/12/01 06:44:30;;;;;;;52.47;22.53;;;;;;;-3.17;88.32;98969.00;5053599;28;20112;-60
2020/12/01 06:46:57;;;;;;;85.77;29.00;;;;;;;-3.09;88.52;98970.16;5063718;28;20439;-61
2020/12/01 06:49:27;;;;;;;63.83;28.67;;;;;;;-2.91;88.64;98969.22;5054652;28;20044;-61
2020/12/01 06:51:58;;;;;;;57.97;28.03;;;;;;;-2.79;89.29;98967.19;5054326;28;20048;-61
2020/12/01 06:54:24;;;;;;;52.80;25.47;;;;;;;-2.63;88.87;98966.13;5057165;28;20028;-61
2020/12/01 06:57:33;;;;;;;54.03;25.93;;;;;;;-2.53;89.08;98972.34;5055657;28;20035;-61
2020/12/01 06:59:59;;;;;;;61.57;26.30;;;;;;;-2.62;88.74;98974.50;5052875;28;20361;-61
2020/12/01 07:02:32;;;;;;;51.70;24.53;;;;;;;-2.48;88.21;98973.38;5052451;28;20025;-61
2020/12/01 07:05:14;;;;;;;83.70;26.87;;;;;;;-2.70;87.94;98966.69;5052702;28;20090;-61
2020/12/01 07:07:47;;;;;;;52.07;24.40;;;;;;;-2.63;88.08;98971.13;5062347;28;20020;-60
2020/12/01 07:10:21;;;;;;;55.27;24.77;;;;;;;-2.53;88.28;98970.69;5050104;28;20052;-61
2020/12/01 07:12:53;;;;;;;93.93;25.30;;;;;;;-2.65;87.91;98970.25;5058285;28;20056;-61
2020/12/01 07:15:50;;;;;;;82.13;25.30;;;;;;;-2.71;86.60;98964.97;5054589;28;20028;-61
2020/12/01 07:18:29;;;;;;;43.20;21.50;;;;;;;-2.68;87.32;98955.09;5049066;28;20060;-60
2020/12/01 07:21:20;;;;;;;62.20;23.47;;;;;;;-2.59;87.41;98959.59;5048676;28;20037;-61
2020/12/01 07:23:56;;;;;;;54.13;23.77;;;;;;;-2.59;87.53;98957.94;5048393;28;20021;-61
2020/12/01 07:26:39;;;;;;;61.97;25.23;;;;;;;-2.57;87.31;98956.34;5047178;28;20044;-62
2020/12/01 07:29:38;;;;;;;60.00;24.17;;;;;;;-2.62;87.36;98954.44;5048185;28;20467;-61
2020/12/01 07:32:26;;;;;;;80.10;25.80;;;;;;;-2.69;87.92;98960.88;5050658;28;20086;-61
2020/12/01 07:35:09;;;;;;;49.67;25.00;;;;;;;-2.48;87.63;98956.69;5058006;28;20033;-61
2020/12/01 07:38:06;;;;;;;65.87;25.70;;;;;;;-2.43;87.42;98961.88;5052650;28;20103;-60
2020/12/01 07:40:47;;;;;;;66.03;25.93;;;;;;;-2.54;87.27;98963.97;5053079;28;20110;-60
2020/12/01 07:43:15;;;;;;;55.80;24.27;;;;;;;-2.40;87.53;98960.31;5049008;28;20059;-60
2020/12/01 07:45:40;;;;;;;93.13;26.73;;;;;;;-2.46;86.91;98960.09;5052832;28;20039;-60
2020/12/01 07:48:12;;;;;;;64.13;22.53;;;;;;;-2.52;86.56;98961.53;5059506;28;20037;-62
2020/12/01 07:50:37;;;;;;;79.07;24.73;;;;;;;-2.47;86.68;98957.53;5050626;28;20021;-62
2020/12/01 07:53:08;;;;;;;52.47;24.27;;;;;;;-2.26;87.41;98958.31;5049522;28;20039;-62
2020/12/01 07:55:37;;;;;;;70.07;24.47;;;;;;;-2.33;86.57;98956.38;5056519;28;20465;-62
2020/12/01 07:58:19;;;;;;;74.00;24.63;;;;;;;-2.47;86.46;98958.41;5048743;28;20052;-63
2020/12/01 08:00:58;;;;;;;49.20;24.10;;;;;;;-2.36;87.52;98959.63;5047954;28;20061;-62
2020/12/01 08:03:29;;;;;;;64.30;32.20;;;;;;;-2.14;87.14;98960.41;5057279;28;20088;-61
2020/12/01 08:06:01;;;;;;;53.80;27.27;;;;;;;-2.01;86.99;98950.88;5051831;28;20043;-61
2020/12/01 08:08:34;;;;;;;44.23;25.43;;;;;;;-1.86;86.92;98956.41;5053363;28;20424;-64
2020/12/01 08:11:05;;;;;;;51.73;24.13;;;;;;;-1.90;86.16;98949.56;5047247;28;20037;-63
2020/12/01 08:13:33;;;;;;;48.77;23.57;;;;;;;-1.75;86.26;98951.78;5052955;28;20026;-63
2020/12/01 08:16:09;;;;;;;49.03;25.67;;;;;;;-1.58;86.16;98950.69;5052662;28;20042;-63
2020/12/01 08:18:35;;;;;;;44.57;24.67;;;;;;;-1.69;85.05;98946.09;5048872;28;20029;-63
2020/12/01 08:21:00;;;;;;;47.60;24.50;;;;;;;-1.78;85.43;98951.66;5056797;28;20083;-63
2020/12/01 08:23:29;;;;;;;43.93;23.30;;;;;;;-1.69;85.35;98948.59;5054635;28;20092;-63
2020/12/01 08:26:10;;;;;;;52.07;28.27;;;;;;;-1.59;84.76;98950.63;5057990;28;20032;-63
2020/12/01 08:28:40;;;;;;;43.07;24.47;;;;;;;-1.80;84.84;98953.28;5050428;28;20082;-63
2020/12/01 08:31:24;;;;;;;48.83;24.23;;;;;;;-1.71;85.19;98953.59;5049267;28;20545;-63
2020/12/01 08:34:18;;;;;;;49.93;26.07;;;;;;;-1.69;84.97;98957.00;5050343;28;20126;-63
2020/12/01 08:36:52;;;;;;;49.27;25.97;;;;;;;-1.75;85.08;98955.94;5047948;28;20052;-63
2020/12/01 08:39:20;;;;;;;53.60;27.77;;;;;;;-1.88;85.52;98953.00;5050225;28;20091;-63
2020/12/01 08:42:21;;;;;;;46.23;24.87;;;;;;;-1.77;85.37;98952.50;5048471;28;20060;-63
2020/12/01 08:45:23;;;;;;;54.93;25.10;;;;;;;-1.73;84.89;98955.19;5053288;28;20038;-62
2020/12/01 08:47:49;;;;;;;44.03;23.60;;;;;;;-1.80;84.65;98963.31;5011017;28;20052;-62
2020/12/01 08:50:22;;;;;;;53.47;26.53;;;;;;;-1.61;84.90;98962.31;5011404;28;20038;-63
2020/12/01 08:52:48;;;;;;;54.30;28.07;;;;;;;-1.65;84.98;98953.78;5010238;28;20053;-63
2020/12/01 08:55:13;;;;;;;60.63;32.90;;;;;;;-1.55;85.12;98944.91;5010114;28;20060;-62
2020/12/01 08:57:39;;;;;;;56.13;30.03;;;;;;;-1.38;84.72;98947.19;5011680;28;20033;-62
2020/12/01 09:00:11;;;;;;;54.00;25.83;;;;;;;-1.23;84.51;98944.28;4995465;28;20026;-63
2020/12/01 09:02:43;;;;;;;48.83;25.20;;;;;;;-1.07;83.92;98954.06;4991379;28;20038;-63
2020/12/01 09:05:19;;;;;;;47.53;27.13;;;;;;;-0.97;83.08;98948.50;5010985;28;20124;-63
2020/12/01 09:07:45;;;;;;;52.23;26.60;;;;;;;-1.31;82.26;98947.34;5012197;28;20045;-63
2020/12/01 09:10:22;;;;;;;49.27;26.33;;;;;;;-1.05;82.81;98949.91;5011828;28;20383;-63
2020/12/01 09:15:56;;;;;;;50.00;24.97;;;;;;;-0.89;81.75;98948.72;5011055;28;20050;-62
2020/12/01 09:23:37;;;;;;;49.47;26.07;;;;;;;-0.75;81.33;98941.59;5012427;28;20455;-63
2020/12/01 09:26:21;;;;;;;51.13;26.23;;;;;;;-0.55;80.44;98936.34;5049538;28;20113;-63
2020/12/01 09:28:52;;;;;;;49.10;26.27;;;;;;;-0.38;79.71;98933.50;5054259;28;20445;-63
2020/12/01 09:31:19;;;;;;;51.60;27.33;;;;;;;-0.27;79.20;98919.53;5051430;28;20025;-63
2020/12/01 09:33:45;;;;;;;57.87;29.13;;;;;;;-0.28;78.96;98921.19;5053885;28;20195;-63
2020/12/01 09:36:19;;;;;;;52.73;28.97;;;;;;;-0.33;78.70;98924.38;5051497;28;20412;-63
2020/12/01 09:38:45;;;;;;;50.03;26.40;;;;;;;-0.13;78.96;98921.59;5051998;28;20047;-63
2020/12/01 09:41:14;;;;;;;55.67;28.17;;;;;;;-0.20;79.20;98914.69;5051699;28;20021;-64
2020/12/01 09:43:46;;;;;;;52.83;28.27;;;;;;;-0.54;79.60;98915.41;5052116;28;20979;-63
2020/12/01 09:46:13;;;;;;;51.23;26.73;;;;;;;-0.35;79.71;98909.25;5051817;28;20477;-63
2020/12/01 09:48:41;;;;;;;50.50;25.83;;;;;;;-0.52;80.30;98912.94;5053355;28;20058;-63
2020/12/01 09:51:07;;;;;;;49.57;27.33;;;;;;;-0.53;79.80;98906.19;5050067;28;20445;-63
2020/12/01 09:56:44;;;;;;;42.10;26.10;;;;;;;-0.20;80.20;98897.06;5029263;28;20037;-63
2020/12/01 10:36:18;;;;;;;49.17;25.80;;;;;;;0.65;77.94;98853.88;5048792;28;20056;-63
2020/12/01 10:38:44;;;;;;;40.23;23.23;;;;;;;0.86;77.17;98848.47;5050799;28;20032;-63
2020/12/01 10:41:09;;;;;;;42.60;24.83;;;;;;;1.00;76.54;98852.16;5049108;28;20091;-63
2020/12/01 10:43:35;;;;;;;46.97;24.77;;;;;;;1.05;75.77;98847.22;5052378;28;20432;-63
2020/12/01 10:46:00;;;;;;;42.97;24.83;;;;;;;1.09;75.76;98842.28;5053218;28;20033;-63
2020/12/01 10:48:26;;;;;;;44.33;23.40;;;;;;;1.32;75.47;98845.28;5053260;28;20033;-63
2020/12/01 10:50:51;;;;;;;46.13;24.60;;;;;;;1.23;74.79;98842.56;5053430;28;20067;-63
2020/12/01 10:53:16;;;;;;;52.63;28.97;;;;;;;1.29;75.38;98838.50;5053004;28;20076;-63
2020/12/01 10:55:42;;;;;;;43.67;26.70;;;;;;;1.35;74.42;98841.16;5053292;28;20024;-64
2020/12/01 10:58:07;;;;;;;46.47;26.23;;;;;;;1.39;75.18;98834.50;5053158;28;20111;-61
2020/12/01 11:00:33;;;;;;;43.37;24.83;;;;;;;1.52;74.60;98830.53;5045916;28;20505;-62
2020/12/01 11:02:58;;;;;;;43.03;23.93;;;;;;;1.53;74.63;98827.19;5047467;28;20044;-63
2020/12/01 11:05:30;;;;;;;44.57;24.07;;;;;;;1.62;74.38;98834.94;5044009;28;20043;-63
2020/12/01 11:07:56;;;;;;;46.57;23.33;;;;;;;1.41;73.71;98829.44;5049215;28;20040;-62
2020/12/01 11:10:22;;;;;;;43.50;24.50;;;;;;;1.42;74.87;98824.44;5051163;28;20108;-63
2020/12/01 11:12:48;;;;;;;39.47;23.33;;;;;;;1.53;74.78;98830.53;5050132;28;20036;-64
2020/12/01 11:15:14;;;;;;;41.60;23.47;;;;;;;1.35;75.12;98827.69;5051198;28;20032;-64
2020/12/01 11:17:40;;;;;;;42.77;25.07;;;;;;;1.38;74.92;98827.72;5051201;28;20025;-64
2020/12/01 11:20:07;;;;;;;52.13;27.13;;;;;;;1.21;75.66;98819.81;5067732;28;20037;-64
2020/12/01 11:22:34;;;;;;;48.23;28.27;;;;;;;1.04;77.24;98832.88;5065433;28;20079;-63
2020/12/01 11:24:59;;;;;;;39.73;24.27;;;;;;;1.15;77.33;98833.97;5052651;28;20107;-63
2020/12/01 11:27:25;;;;;;;39.13;22.53;;;;;;;1.34;76.29;98836.06;5051288;28;20115;-64
2020/12/01 11:29:50;;;;;;;43.83;25.20;;;;;;;1.41;76.05;98835.34;5057533;28;20110;-63
2020/12/01 11:32:16;;;;;;;60.87;28.63;;;;;;;1.40;76.21;98826.06;5068871;28;20055;-62
2020/12/01 11:34:42;;;;;;;44.93;24.10;;;;;;;1.48;75.96;98822.06;5048202;28;20053;-62
2020/12/01 11:37:07;;;;;;;89.07;38.63;;;;;;;1.14;77.24;98818.00;5054377;28;20118;-63
2020/12/01 11:39:33;;;;;;;50.63;27.30;;;;;;;1.39;77.36;98811.75;5054703;28;20056;-63
2020/12/01 11:41:58;;;;;;;41.57;22.83;;;;;;;1.60;76.34;98812.19;5055043;28;20040;-63
2020/12/01 11:44:24;;;;;;;43.57;25.00;;;;;;;1.76;75.72;98810.78;5052303;28;20461;-63
2020/12/01 11:46:49;;;;;;;43.67;23.47;;;;;;;1.86;74.74;98815.19;5055152;28;20448;-63
2020/12/01 11:49:15;;;;;;;40.87;23.53;;;;;;;1.92;74.91;98814.44;5053480;28;20028;-63
2020/12/01 11:51:41;;;;;;;39.07;21.90;;;;;;;1.91;73.82;98812.75;5054429;28;20043;-62
2020/12/01 11:54:09;;;;;;;34.90;19.53;;;;;;;2.05;73.55;98812.16;5053014;28;20053;-62
2020/12/01 11:56:34;;;;;;;35.60;20.00;;;;;;;2.12;73.08;98806.38;5055143;28;20723;-62
2020/12/01 11:59:00;;;;;;;38.77;20.40;;;;;;;2.28;72.94;98799.91;5054244;28;20041;-62
2020/12/01 12:01:26;;;;;;;41.47;22.50;;;;;;;2.59;72.44;98798.72;5054853;28;20075;-62
2020/12/01 12:03:51;;;;;;;38.93;19.37;;;;;;;2.72;72.04;98798.91;5051026;28;20064;-60
2020/12/01 12:06:17;;;;;;;37.33;20.80;;;;;;;2.75;70.68;98796.44;5054523;28;20147;-60
2020/12/01 12:08:43;;;;;;;40.63;22.73;;;;;;;2.83;70.77;98796.53;5054200;28;20880;-61
2020/12/01 12:11:09;;;;;;;41.90;22.10;;;;;;;2.53;70.87;98796.94;5054173;28;20029;-60
2020/12/01 12:13:34;;;;;;;41.07;22.03;;;;;;;2.58;71.05;98800.41;5051646;28;20047;-59
2020/12/01 12:15:59;;;;;;;41.77;22.33;;;;;;;2.53;70.76;98793.56;5052527;28;20339;-60
2020/12/01 12:18:25;;;;;;;41.47;23.03;;;;;;;2.48;70.82;98792.63;5054433;28;20033;-61
2020/12/01 12:20:50;;;;;;;37.83;21.40;;;;;;;2.58;70.55;98790.28;5054291;28;20110;-61
2020/12/01 12:23:16;;;;;;;38.70;22.67;;;;;;;2.47;70.96;98795.97;5054329;28;20032;-61
2020/12/01 12:25:41;;;;;;;42.10;22.23;;;;;;;2.71;70.58;98794.69;5049515;28;20043;-61